createdAt,value
2019-01-08T00:00:50.556Z,-5.55
2019-01-08T00:30:52.849Z,-5.44
2019-01-08T00:45:51.762Z,-5.33
2019-01-08T01:00:51.678Z,-5.17
2019-01-08T01:15:51.547Z,-5.10
2019-01-08T01:30:53.438Z,-5.03
2019-01-08T01:45:50.837Z,-4.97
2019-01-08T02:00:51.659Z,-4.90
2019-01-08T02:15:53.599Z,-4.85
2019-01-08T02:30:51.034Z,-4.78
2019-01-08T02:45:51.976Z,-4.71
2019-01-08T03:00:51.320Z,-4.64
2019-01-08T03:15:51.289Z,-4.64
2019-01-08T03:30:54.709Z,-4.66
2019-01-08T03:45:58.036Z,-4.64
2019-01-08T04:00:53.470Z,-4.65
2019-01-08T04:15:52.807Z,-4.70
2019-01-08T04:30:51.827Z,-4.66
2019-01-08T04:45:51.748Z,-4.74
2019-01-08T05:00:51.604Z,-4.70
2019-01-08T05:15:51.559Z,-4.65
2019-01-08T05:30:53.858Z,-4.62
2019-01-08T05:45:50.800Z,-4.39
2019-01-08T06:00:53.697Z,-4.51
2019-01-08T06:15:51.716Z,-4.65
2019-01-08T06:30:51.558Z,-4.65
2019-01-08T06:45:51.431Z,-4.58
2019-01-08T07:00:50.847Z,-4.29
2019-01-08T07:15:49.916Z,-4.03
2019-01-08T07:30:51.100Z,-3.33
2019-01-08T07:45:52.495Z,-3.30
2019-01-08T08:00:50.932Z,-3.04
2019-01-08T08:15:50.872Z,-0.75
2019-01-08T08:30:58.673Z,1.61
2019-01-08T08:45:50.580Z,3.30
2019-01-08T09:00:52.500Z,4.01
2019-01-08T09:15:51.947Z,4.48
2019-01-08T09:45:51.284Z,4.89
2019-01-08T10:00:50.125Z,5.21
2019-01-08T17:45:53.771Z,-3.00
2019-01-08T18:00:52.413Z,-2.95
2019-01-08T18:15:53.454Z,-2.86
2019-01-08T18:30:53.406Z,-2.75
2019-01-08T18:45:51.308Z,-2.57
2019-01-08T19:00:50.719Z,-2.90
2019-01-08T19:15:51.161Z,-3.18
2019-01-08T19:30:52.754Z,-3.26
2019-01-08T19:45:51.499Z,-3.11
2019-01-08T20:00:51.489Z,-3.14
2019-01-08T20:15:51.443Z,-3.16
2019-01-08T20:30:51.379Z,-3.29
2019-01-08T20:45:53.144Z,-3.82
2019-01-08T21:00:51.544Z,-4.01
2019-01-08T21:15:51.912Z,-3.98
2019-01-08T21:30:53.428Z,-3.77
2019-01-08T21:45:51.594Z,-3.38
2019-01-08T22:00:51.058Z,-3.40
2019-01-08T22:15:52.926Z,-3.33
2019-01-08T22:30:51.948Z,-3.39
2019-01-08T22:45:50.816Z,-3.59
2019-01-08T23:15:51.645Z,-3.77
2019-01-08T23:30:51.490Z,-3.78
2019-01-08T23:45:52.408Z,-3.88
